Time;durP1;ratioP1;P1;durP2;ratioP2;P2;SDS_P1;SDS_P2;PMS_P1;PMS_P2;Temp;Humidity;BMP_temperature;BMP_pressure;BME280_temperature;BME280_humidity;BME280_pressure;Samples;Min_cycle;Max_cycle;Signal;HPM_P1;HPM_P2
2022/11/16 00:01:31;;;;;;;4.23;2.43;;;8.90;99.90;;;;;;5054361;28;20189;-67
2022/11/16 00:03:59;;;;;;;6.33;2.43;;;8.90;99.90;;;;;;5054439;28;20459;-67
2022/11/16 00:06:26;;;;;;;4.83;2.63;;;8.80;99.90;;;;;;5054221;28;20405;-67
2022/11/16 00:11:42;;;;;;;4.10;2.40;;;8.80;99.90;;;;;;5054128;28;20451;-67
2022/11/16 00:14:08;;;;;;;4.97;3.00;;;8.80;99.90;;;;;;5053632;28;20463;-67
2022/11/16 00:16:33;;;;;;;4.43;2.70;;;8.70;99.90;;;;;;5054404;28;20200;-68
2022/11/16 00:19:02;;;;;;;6.10;2.60;;;8.70;99.90;;;;;;5054182;28;20185;-67
2022/11/16 00:21:28;;;;;;;6.87;3.53;;;8.70;99.90;;;;;;5053680;28;20650;-68
2022/11/16 00:23:54;;;;;;;7.77;3.60;;;8.70;99.90;;;;;;5054045;28;20423;-67
2022/11/16 00:26:21;;;;;;;4.40;2.87;;;8.60;99.90;;;;;;5054209;28;20420;-67
2022/11/16 00:28:47;;;;;;;6.40;2.93;;;8.60;99.90;;;;;;5053883;28;20186;-67
2022/11/16 00:31:12;;;;;;;10.47;3.30;;;8.60;99.90;;;;;;5054091;28;20473;-68
2022/11/16 00:33:38;;;;;;;7.10;3.60;;;8.60;99.90;;;;;;5053557;28;20420;-67
2022/11/16 00:36:06;;;;;;;4.40;2.70;;;8.60;99.90;;;;;;5051898;28;20193;-67
2022/11/16 00:38:32;;;;;;;9.13;3.80;;;8.50;99.90;;;;;;5054099;28;20428;-67
2022/11/16 00:40:58;;;;;;;4.00;2.30;;;8.50;99.90;;;;;;5054187;28;20427;-67
2022/11/16 00:43:24;;;;;;;5.27;2.70;;;8.50;99.90;;;;;;5053197;28;20213;-67
2022/11/16 00:45:49;;;;;;;4.77;2.80;;;8.50;99.90;;;;;;5054120;28;20190;-67
2022/11/16 00:48:15;;;;;;;3.40;2.27;;;8.50;99.90;;;;;;5053835;28;20186;-67
2022/11/16 00:50:42;;;;;;;5.47;2.73;;;8.50;99.90;;;;;;5047956;28;20240;-67
2022/11/16 00:53:12;;;;;;;5.80;2.13;;;8.40;99.90;;;;;;5053186;28;20276;-67
2022/11/16 00:55:38;;;;;;;10.20;3.33;;;8.50;99.90;;;;;;5053441;28;20438;-67
2022/11/16 00:58:03;;;;;;;4.27;2.80;;;8.40;99.90;;;;;;5053287;28;20432;-67
2022/11/16 01:00:29;;;;;;;3.57;2.07;;;8.50;99.90;;;;;;5053712;28;20193;-68
2022/11/16 01:02:55;;;;;;;6.10;3.07;;;8.50;99.90;;;;;;5052945;28;20224;-68
2022/11/16 01:05:22;;;;;;;4.10;2.27;;;8.50;99.90;;;;;;5053275;28;20420;-68
2022/11/16 01:07:48;;;;;;;3.00;1.70;;;8.50;99.90;;;;;;5053815;28;20178;-68
2022/11/16 01:10:16;;;;;;;3.43;1.83;;;8.50;99.90;;;;;;5053228;28;20416;-68
2022/11/16 01:12:43;;;;;;;3.80;2.27;;;8.50;99.90;;;;;;5053036;28;20940;-68
2022/11/16 01:15:09;;;;;;;2.50;1.40;;;8.50;99.90;;;;;;5052517;28;20444;-68
2022/11/16 01:17:36;;;;;;;5.53;2.33;;;8.60;99.90;;;;;;5044598;28;20439;-68
2022/11/16 01:20:04;;;;;;;4.90;1.97;;;8.60;99.90;;;;;;5052907;28;20426;-69
2022/11/16 01:22:30;;;;;;;3.70;1.80;;;8.60;99.90;;;;;;5052671;28;20486;-67
2022/11/16 01:24:56;;;;;;;2.80;1.10;;;8.60;99.90;;;;;;5053809;28;20412;-67
2022/11/16 01:27:22;;;;;;;3.27;1.70;;;8.60;99.90;;;;;;5054367;28;20428;-68
2022/11/16 01:29:47;;;;;;;3.50;1.53;;;8.70;99.90;;;;;;5053952;28;20675;-68
2022/11/16 01:32:13;;;;;;;3.97;1.50;;;8.70;99.90;;;;;;5053830;28;20208;-68
2022/11/16 01:34:38;;;;;;;2.10;1.07;;;8.70;99.90;;;;;;5053413;28;20178;-67
2022/11/16 01:37:04;;;;;;;2.67;1.60;;;8.80;99.90;;;;;;5052551;28;20200;-68
2022/11/16 01:39:29;;;;;;;4.77;1.80;;;8.80;99.90;;;;;;5052579;28;20197;-68
2022/11/16 01:41:55;;;;;;;2.77;1.37;;;8.80;99.90;;;;;;5052523;28;20595;-68
2022/11/16 01:44:33;;;;;;;1.90;1.07;;;8.80;99.90;;;;;;5052135;28;20174;-68
2022/11/16 01:46:59;;;;;;;1.77;0.90;;;8.90;99.90;;;;;;5052823;28;20209;-68
2022/11/16 01:49:28;;;;;;;2.50;1.53;;;8.90;99.90;;;;;;5044384;28;20506;-68
2022/11/16 01:52:06;;;;;;;2.20;1.10;;;8.90;99.90;;;;;;5051893;28;20440;-68
2022/11/16 01:54:35;;;;;;;1.90;0.80;;;9.00;99.90;;;;;;5052583;28;20439;-68
2022/11/16 01:57:04;;;;;;;4.17;1.20;;;9.00;99.90;;;;;;5052315;28;20404;-68
2022/11/16 01:59:30;;;;;;;2.83;1.13;;;9.00;99.90;;;;;;5051857;28;20420;-68
2022/11/16 02:01:58;;;;;;;24.60;1.07;;;9.10;99.90;;;;;;5051230;28;20464;-68
2022/11/16 02:04:24;;;;;;;2.33;1.10;;;9.00;99.90;;;;;;5052271;28;20416;-68
2022/11/16 02:07:15;;;;;;;1.43;0.80;;;9.00;99.90;;;;;;5051990;28;20424;-68
2022/11/16 02:10:32;;;;;;;1.40;0.70;;;9.10;99.90;;;;;;5052428;28;20196;-68
2022/11/16 02:13:20;;;;;;;2.00;1.10;;;9.10;99.90;;;;;;5002532;28;20436;-68
2022/11/16 02:16:29;;;;;;;2.03;1.03;;;9.10;99.90;;;;;;5052240;28;20428;-68
2022/11/16 02:19:03;;;;;;;1.60;1.10;;;9.10;99.90;;;;;;5042874;28;20727;-69
2022/11/16 02:21:35;;;;;;;1.53;0.87;;;9.10;99.90;;;;;;5051429;28;20434;-69
2022/11/16 02:24:40;;;;;;;2.83;1.27;;;9.10;99.90;;;;;;5051824;28;20779;-69
2022/11/16 02:27:17;;;;;;;4.57;1.50;;;9.10;99.90;;;;;;5037552;28;20432;-68
2022/11/16 02:29:54;;;;;;;1.97;1.10;;;9.10;99.90;;;;;;5051504;28;20408;-69
2022/11/16 02:32:30;;;;;;;2.20;1.30;;;9.10;99.90;;;;;;5051387;28;20416;-69
2022/11/16 02:34:59;;;;;;;5.17;1.47;;;9.00;99.90;;;;;;5050778;28;20427;-68
2022/11/16 02:37:27;;;;;;;2.60;1.30;;;9.00;99.90;;;;;;5047234;28;20908;-68
2022/11/16 02:39:56;;;;;;;3.70;1.57;;;9.00;99.90;;;;;;5051700;28;20424;-68
2022/11/16 02:42:29;;;;;;;2.10;1.17;;;9.00;99.90;;;;;;5051176;28;20463;-68
2022/11/16 02:44:56;;;;;;;2.33;1.10;;;9.00;99.90;;;;;;5051601;28;20435;-68
2022/11/16 02:47:26;;;;;;;1.90;1.20;;;9.00;99.90;;;;;;5051554;28;20452;-68
2022/11/16 02:50:00;;;;;;;2.70;1.47;;;9.00;99.90;;;;;;5051603;28;20896;-68
2022/11/16 02:52:27;;;;;;;2.37;1.50;;;9.00;99.90;;;;;;5050666;28;20419;-68
2022/11/16 02:54:53;;;;;;;4.17;1.23;;;9.00;99.90;;;;;;5051296;28;20423;-68
2022/11/16 02:57:27;;;;;;;3.37;1.40;;;9.00;99.90;;;;;;5051585;28;20412;-68
2022/11/16 02:59:56;;;;;;;3.00;1.53;;;9.00;99.90;;;;;;5051510;28;20201;-68
2022/11/16 03:02:38;;;;;;;3.57;1.90;;;9.00;99.90;;;;;;5051352;28;20454;-68
2022/11/16 03:05:10;;;;;;;2.30;1.13;;;8.90;99.90;;;;;;5051545;28;20421;-68
2022/11/16 03:07:52;;;;;;;2.30;1.13;;;8.90;99.90;;;;;;5050950;28;20427;-68
2022/11/16 03:13:16;;;;;;;11.10;2.10;;;9.00;99.90;;;;;;5019354;28;20424;-68
2022/11/16 03:15:42;;;;;;;1.37;0.83;;;9.00;99.90;;;;;;5054852;28;20428;-68
2022/11/16 03:18:08;;;;;;;1.40;0.77;;;9.10;99.90;;;;;;5055513;28;20419;-68
2022/11/16 03:20:37;;;;;;;3.47;1.33;;;9.10;99.90;;;;;;5055286;28;20448;-68
2022/11/16 03:23:07;;;;;;;4.17;1.67;;;9.10;99.90;;;;;;5054443;28;20574;-69
2022/11/16 03:25:43;;;;;;;2.40;1.50;;;9.10;99.90;;;;;;5055652;28;20439;-68
2022/11/16 03:28:24;;;;;;;2.03;1.30;;;9.10;99.90;;;;;;5054699;28;20419;-68
2022/11/16 03:31:01;;;;;;;2.97;1.30;;;9.10;99.90;;;;;;5055568;28;20416;-68
2022/11/16 03:33:54;;;;;;;2.43;1.50;;;9.10;99.90;;;;;;5055022;28;20455;-69
2022/11/16 03:36:33;;;;;;;4.07;2.13;;;9.10;99.90;;;;;;5054862;28;20807;-68
2022/11/16 03:39:04;;;;;;;2.53;1.63;;;9.10;99.90;;;;;;5055173;28;20946;-69
2022/11/16 03:41:31;;;;;;;2.00;1.03;;;9.00;99.90;;;;;;5055219;28;20446;-69
2022/11/16 03:43:58;;;;;;;1.80;1.17;;;9.00;99.90;;;;;;5054750;28;20916;-69
2022/11/16 03:46:23;;;;;;;2.47;1.60;;;9.00;99.90;;;;;;5055313;28;20415;-68
2022/11/16 03:48:56;;;;;;;2.27;1.13;;;9.00;99.90;;;;;;5055351;28;20424;-68
2022/11/16 03:51:22;;;;;;;2.27;0.80;;;9.00;99.90;;;;;;5055029;28;20854;-68
2022/11/16 03:53:47;;;;;;;2.80;1.10;;;9.00;99.90;;;;;;5054634;28;20452;-68
2022/11/16 03:56:13;;;;;;;2.47;1.20;;;9.10;99.90;;;;;;5054958;28;20626;-68
2022/11/16 03:58:39;;;;;;;2.30;1.40;;;9.10;99.90;;;;;;5054476;28;20270;-69
2022/11/16 04:01:04;;;;;;;1.93;1.23;;;9.10;99.90;;;;;;5054809;28;20534;-68
2022/11/16 04:03:30;;;;;;;2.90;1.50;;;9.00;99.90;;;;;;5054205;28;20210;-69
2022/11/16 04:25:20;;;;;;;2.13;1.30;;;9.10;99.90;;;;;;5041741;28;20404;-67
2022/11/16 04:37:47;;;;;;;1.83;1.27;;;9.10;99.90;;;;;;5054622;28;20474;-67
2022/11/16 04:38:44;;;;;;;3.00;1.00;;;9.30;99.90;;;;;;5054333;28;20962;-68
2022/11/16 04:42:13;;;;;;;2.23;1.20;;;9.30;99.90;;;;;;5054019;28;20456;-68
2022/11/16 04:43:56;;;;;;;2.43;1.20;;;9.20;99.90;;;;;;5053213;28;20222;-68
2022/11/16 04:49:06;;;;;;;2.10;1.20;;;9.20;99.90;;;;;;5053885;28;20489;-68
2022/11/16 04:51:32;;;;;;;2.27;1.47;;;9.20;99.90;;;;;;5053297;28;20901;-69
2022/11/16 04:53:57;;;;;;;4.73;1.50;;;9.20;99.90;;;;;;5053256;28;20178;-68
2022/11/16 04:56:23;;;;;;;1.90;1.10;;;9.10;99.90;;;;;;5053777;28;20253;-68
2022/11/16 04:58:48;;;;;;;1.53;1.00;;;9.20;99.90;;;;;;5053213;28;20193;-69
2022/11/16 05:01:14;;;;;;;2.50;1.30;;;9.10;99.90;;;;;;5053601;28;20315;-68
2022/11/16 05:03:39;;;;;;;1.90;1.40;;;9.10;99.90;;;;;;5053071;28;20213;-68
2022/11/16 05:06:05;;;;;;;2.87;1.73;;;9.10;99.90;;;;;;5053461;28;20182;-67
2022/11/16 05:08:31;;;;;;;9.63;1.27;;;9.10;99.90;;;;;;5053190;28;20182;-67
2022/11/16 05:10:56;;;;;;;2.80;1.67;;;9.10;99.90;;;;;;5053376;28;20178;-67
2022/11/16 05:13:22;;;;;;;2.17;1.10;;;9.00;99.90;;;;;;5052117;28;20202;-67
2022/11/16 05:15:48;;;;;;;3.93;1.17;;;9.00;99.90;;;;;;5053560;28;20188;-68
2022/11/16 05:18:13;;;;;;;2.70;1.50;;;9.00;99.90;;;;;;5053435;28;20205;-68
2022/11/16 05:26:07;;;;;;;2.70;1.63;;;9.00;99.90;;;;;;5053214;28;20427;-69
2022/11/16 05:28:32;;;;;;;6.60;2.23;;;9.00;99.90;;;;;;5052907;28;20909;-69
2022/11/16 05:30:58;;;;;;;7.10;2.23;;;9.00;99.90;;;;;;5053045;28;20296;-69
2022/11/16 05:33:23;;;;;;;2.83;1.53;;;8.90;99.90;;;;;;5052537;28;20196;-69
2022/11/16 05:35:50;;;;;;;3.43;1.90;;;8.90;99.90;;;;;;5051955;28;20729;-69
2022/11/16 05:38:16;;;;;;;5.20;1.50;;;8.80;99.90;;;;;;5052229;28;20722;-69
2022/11/16 05:40:42;;;;;;;2.37;1.60;;;8.80;99.90;;;;;;5052791;28;20421;-69
2022/11/16 05:43:07;;;;;;;10.30;1.87;;;8.80;99.90;;;;;;5051995;28;20459;-69
2022/11/16 05:45:33;;;;;;;3.13;1.80;;;8.80;99.90;;;;;;5052839;28;20248;-69
2022/11/16 05:48:00;;;;;;;3.60;1.50;;;8.80;99.90;;;;;;5052782;28;20256;-69
2022/11/16 05:50:26;;;;;;;2.73;1.60;;;8.80;99.90;;;;;;5052843;28;21261;-69
2022/11/16 05:52:51;;;;;;;4.00;2.07;;;8.80;99.90;;;;;;5056507;28;20732;-69
2022/11/16 05:55:17;;;;;;;4.00;1.77;;;8.80;99.90;;;;;;5055732;28;20589;-69
2022/11/16 05:57:43;;;;;;;2.67;1.70;;;8.80;99.90;;;;;;5047777;28;20177;-69
2022/11/16 06:00:09;;;;;;;5.20;2.63;;;8.80;99.90;;;;;;5052097;28;20565;-69
2022/11/16 06:02:35;;;;;;;4.47;1.87;;;8.80;99.90;;;;;;5052245;28;20264;-69
2022/11/16 06:05:01;;;;;;;6.00;1.67;;;8.80;99.90;;;;;;5052459;28;20416;-69
2022/11/16 06:07:26;;;;;;;4.63;2.10;;;8.80;99.90;;;;;;5053111;28;20478;-69
2022/11/16 06:09:52;;;;;;;5.40;1.50;;;8.80;99.90;;;;;;5052391;28;20181;-69
2022/11/16 06:12:17;;;;;;;3.03;1.87;;;8.80;99.90;;;;;;5052323;28;20201;-69
2022/11/16 06:14:43;;;;;;;7.93;2.87;;;8.80;99.90;;;;;;5051519;28;20551;-69
2022/11/16 06:17:13;;;;;;;5.50;2.23;;;8.80;99.90;;;;;;5051988;28;20190;-69
2022/11/16 06:19:39;;;;;;;4.90;2.20;;;8.80;99.90;;;;;;5051987;28;20182;-69
2022/11/16 06:22:05;;;;;;;2.20;1.17;;;8.80;99.90;;;;;;5051416;28;20547;-69
2022/11/16 06:24:30;;;;;;;5.33;2.77;;;8.90;99.90;;;;;;5052124;28;20520;-68
2022/11/16 06:26:56;;;;;;;3.70;2.10;;;8.80;99.90;;;;;;5052036;28;20214;-68
2022/11/16 06:29:21;;;;;;;3.07;2.23;;;8.80;99.90;;;;;;5051522;28;20186;-68
2022/11/16 06:31:47;;;;;;;3.50;1.93;;;8.80;99.90;;;;;;5051584;28;20631;-68
2022/11/16 06:34:13;;;;;;;4.30;2.10;;;8.80;99.90;;;;;;5050512;28;20972;-69
2022/11/16 06:36:38;;;;;;;3.53;1.93;;;8.80;99.90;;;;;;5051934;28;20193;-68
2022/11/16 06:39:04;;;;;;;5.70;2.87;;;8.80;99.90;;;;;;5051519;28;20192;-68
2022/11/16 06:41:30;;;;;;;5.20;1.87;;;8.80;99.90;;;;;;5051453;28;20193;-69
2022/11/16 06:43:56;;;;;;;4.87;1.90;;;8.80;99.90;;;;;;5051116;28;20288;-68
2022/11/16 06:46:23;;;;;;;6.20;1.93;;;8.80;99.90;;;;;;5049083;28;20920;-68
2022/11/16 06:48:49;;;;;;;3.80;2.00;;;8.70;99.90;;;;;;5051087;28;20204;-68
2022/11/16 06:51:14;;;;;;;3.23;1.90;;;8.70;99.90;;;;;;5051827;28;20892;-68
2022/11/16 06:53:40;;;;;;;6.13;1.60;;;8.70;99.90;;;;;;5051100;28;20339;-68
2022/11/16 06:56:06;;;;;;;3.10;1.73;;;8.70;99.90;;;;;;5051757;28;20192;-68
2022/11/16 06:58:32;;;;;;;2.17;1.30;;;8.60;99.90;;;;;;5051289;28;20221;-68
2022/11/16 07:01:07;;;;;;;2.60;1.63;;;8.60;99.90;;;;;;5051648;28;20901;-68
2022/11/16 07:03:33;;;;;;;4.90;1.47;;;8.50;99.90;;;;;;5051080;28;20532;-68
2022/11/16 07:05:58;;;;;;;1.70;1.00;;;8.50;99.90;;;;;;5051240;28;20503;-68
2022/11/16 07:08:24;;;;;;;3.20;1.87;;;8.50;99.90;;;;;;5050572;28;20264;-68
2022/11/16 07:10:50;;;;;;;3.00;1.90;;;8.50;99.90;;;;;;5051117;28;20186;-68
2022/11/16 07:13:15;;;;;;;2.70;1.30;;;8.60;99.90;;;;;;5049466;28;20293;-67
2022/11/16 07:15:41;;;;;;;3.63;1.53;;;8.60;99.90;;;;;;5050642;28;20192;-68
2022/11/16 07:18:07;;;;;;;1.73;1.07;;;8.70;99.90;;;;;;5051571;28;20630;-69
2022/11/16 07:20:33;;;;;;;3.77;1.53;;;8.60;99.90;;;;;;5051849;28;20219;-69
2022/11/16 07:23:02;;;;;;;3.00;0.70;;;8.70;99.90;;;;;;5036097;28;20467;-69
2022/11/16 07:25:28;;;;;;;2.07;0.70;;;8.80;99.90;;;;;;5051792;28;20424;-69
2022/11/16 07:27:56;;;;;;;1.30;0.60;;;8.70;99.90;;;;;;5051427;28;20942;-69
2022/11/16 07:30:21;;;;;;;1.53;0.77;;;8.70;99.90;;;;;;5051018;28;20420;-69
2022/11/16 07:32:47;;;;;;;1.43;0.60;;;8.70;99.90;;;;;;5051024;28;20485;-69
2022/11/16 07:35:12;;;;;;;2.27;0.97;;;8.80;99.90;;;;;;5050779;28;20614;-68
2022/11/16 07:37:38;;;;;;;1.33;0.67;;;8.80;99.90;;;;;;5051478;28;20189;-69
2022/11/16 07:40:04;;;;;;;3.60;1.00;;;8.80;99.90;;;;;;5051881;28;20186;-68
2022/11/16 07:42:30;;;;;;;5.23;1.53;;;8.90;99.90;;;;;;5050709;28;20259;-69
2022/11/16 07:44:55;;;;;;;1.83;0.80;;;8.90;99.90;;;;;;5051078;28;20419;-68
2022/11/16 07:47:21;;;;;;;4.83;1.27;;;8.90;99.90;;;;;;5051136;28;20645;-69
2022/11/16 07:49:47;;;;;;;3.40;0.93;;;8.90;99.90;;;;;;5051314;28;20220;-68
2022/11/16 07:52:13;;;;;;;1.40;0.60;;;9.00;99.90;;;;;;5050720;28;20244;-68
2022/11/16 07:54:38;;;;;;;1.33;0.53;;;9.10;99.90;;;;;;5051267;28;20897;-67
2022/11/16 07:57:04;;;;;;;1.90;0.80;;;9.10;99.90;;;;;;5051574;28;20268;-69
2022/11/16 07:59:30;;;;;;;2.07;0.80;;;9.30;99.90;;;;;;5052065;28;20548;-68
2022/11/16 08:01:55;;;;;;;1.40;0.63;;;9.40;99.90;;;;;;5037169;28;20224;-69
2022/11/16 08:04:21;;;;;;;1.80;0.80;;;9.30;99.90;;;;;;5055639;28;20616;-68
2022/11/16 08:06:49;;;;;;;1.83;0.80;;;9.40;99.90;;;;;;5054885;28;20631;-69
2022/11/16 08:09:15;;;;;;;1.50;0.60;;;9.50;99.90;;;;;;5054622;28;20288;-68
2022/11/16 08:11:40;;;;;;;2.27;0.80;;;9.50;99.90;;;;;;5054260;28;20514;-69
2022/11/16 08:14:06;;;;;;;2.63;0.70;;;9.50;99.90;;;;;;5053941;28;20531;-68
2022/11/16 08:16:32;;;;;;;7.40;0.67;;;9.40;99.90;;;;;;5054308;28;20198;-68
2022/11/16 08:18:59;;;;;;;1.20;0.53;;;9.50;99.90;;;;;;5054540;28;20243;-68
2022/11/16 08:21:25;;;;;;;1.50;0.63;;;9.50;99.90;;;;;;5054193;28;20526;-68
2022/11/16 08:23:51;;;;;;;1.10;0.50;;;9.50;99.90;;;;;;5053534;28;20468;-67
2022/11/16 08:26:18;;;;;;;1.20;0.60;;;9.50;99.90;;;;;;5054547;28;20966;-67
2022/11/16 08:28:46;;;;;;;5.40;1.27;;;9.60;99.90;;;;;;5054151;28;20815;-67
2022/11/16 08:31:15;;;;;;;2.63;1.53;;;9.60;99.90;;;;;;5054403;28;20473;-68
2022/11/16 08:33:41;;;;;;;3.60;1.37;;;9.60;99.90;;;;;;5053839;28;20432;-67
2022/11/16 08:36:11;;;;;;;2.50;0.73;;;9.60;99.90;;;;;;5052876;28;20498;-67
2022/11/16 08:38:37;;;;;;;1.87;1.03;;;9.60;99.90;;;;;;5053807;28;20193;-67
2022/11/16 08:41:03;;;;;;;3.83;0.80;;;9.50;99.90;;;;;;5053916;28;20459;-67
2022/11/16 08:43:29;;;;;;;3.10;1.10;;;9.50;99.90;;;;;;5053110;28;20467;-67
2022/11/16 08:45:56;;;;;;;2.53;1.23;;;9.60;99.90;;;;;;5053796;28;20235;-67
2022/11/16 08:48:21;;;;;;;1.40;0.70;;;9.60;99.90;;;;;;5053935;28;20438;-68
2022/11/16 08:50:47;;;;;;;1.87;0.87;;;9.60;99.90;;;;;;5053780;28;20420;-66
2022/11/16 08:53:14;;;;;;;3.77;1.10;;;9.60;99.90;;;;;;5052975;28;20186;-67
2022/11/16 08:55:41;;;;;;;3.07;1.03;;;9.60;99.90;;;;;;5053660;28;20177;-68
2022/11/16 08:58:07;;;;;;;2.13;1.13;;;9.70;99.90;;;;;;5053407;28;20742;-68
2022/11/16 09:00:33;;;;;;;1.87;0.70;;;9.70;99.90;;;;;;5053562;28;20435;-68
2022/11/16 09:02:58;;;;;;;4.87;0.70;;;9.60;99.90;;;;;;5052955;28;20456;-67
2022/11/16 09:05:24;;;;;;;1.73;0.60;;;9.60;99.90;;;;;;5053680;28;20183;-67
2022/11/16 09:07:49;;;;;;;1.20;0.50;;;9.60;99.90;;;;;;5053409;28;20190;-67
2022/11/16 09:10:17;;;;;;;1.40;0.67;;;9.70;99.90;;;;;;5053484;28;20184;-68
2022/11/16 09:12:43;;;;;;;1.70;0.80;;;9.80;99.90;;;;;;5052644;28;20193;-68
2022/11/16 09:15:09;;;;;;;4.60;0.60;;;9.90;99.90;;;;;;5052602;28;20444;-67
2022/11/16 09:17:35;;;;;;;1.43;0.90;;;10.10;99.90;;;;;;5053426;28;20181;-67
2022/11/16 09:20:00;;;;;;;2.43;0.87;;;10.20;99.90;;;;;;5053088;28;20569;-67
2022/11/16 09:22:26;;;;;;;1.63;0.60;;;10.40;99.90;;;;;;5052428;28;20205;-68
2022/11/16 09:24:51;;;;;;;1.50;0.50;;;10.50;99.90;;;;;;5052957;28;20224;-67
2022/11/16 09:27:17;;;;;;;10.33;1.00;;;10.60;99.90;;;;;;5053396;28;20181;-67
2022/11/16 09:29:42;;;;;;;1.73;0.60;;;10.70;99.90;;;;;;5052379;28;20726;-68
2022/11/16 09:32:08;;;;;;;1.40;0.70;;;10.70;99.90;;;;;;5052692;28;20178;-68
2022/11/16 09:34:35;;;;;;;1.20;0.50;;;10.80;99.90;;;;;;5051566;28;20264;-68
2022/11/16 09:37:01;;;;;;;1.43;0.60;;;10.70;99.90;;;;;;5052900;28;20626;-68
2022/11/16 09:39:27;;;;;;;2.70;0.80;;;10.60;99.90;;;;;;5053033;28;20901;-68
2022/11/16 09:42:12;;;;;;;8.33;0.90;;;10.60;99.90;;;;;;5052349;28;20420;-68
2022/11/16 09:45:07;;;;;;;1.30;0.50;;;10.70;99.90;;;;;;5040555;28;20193;-68
2022/11/16 09:47:49;;;;;;;2.00;0.90;;;10.80;99.90;;;;;;5052864;28;20439;-67
2022/11/16 09:50:40;;;;;;;3.90;0.80;;;11.10;99.90;;;;;;5052762;28;20504;-68
2022/11/16 09:53:47;;;;;;;2.90;0.90;;;11.30;99.90;;;;;;5042642;28;20428;-68
2022/11/16 09:56:17;;;;;;;2.97;1.00;;;11.50;99.90;;;;;;5032376;28;20428;-68
2022/11/16 09:58:52;;;;;;;29.10;1.43;;;11.60;99.90;;;;;;5051727;28;20448;-68
2022/11/16 10:01:36;;;;;;;1.63;0.60;;;11.60;99.90;;;;;;5051715;28;20420;-68
2022/11/16 10:04:28;;;;;;;1.47;0.73;;;11.70;99.90;;;;;;5040935;28;20459;-68
2022/11/16 10:06:53;;;;;;;2.37;1.00;;;11.60;99.90;;;;;;5032234;28;20429;-68
2022/11/16 10:09:19;;;;;;;3.30;0.90;;;11.60;99.90;;;;;;5050822;28;20418;-68
2022/11/16 10:11:51;;;;;;;1.60;0.60;;;11.60;99.90;;;;;;5050747;28;20170;-68
2022/11/16 10:14:56;;;;;;;1.80;0.70;;;11.50;99.90;;;;;;5050974;28;20691;-68
2022/11/16 10:17:27;;;;;;;1.93;0.97;;;11.50;99.90;;;;;;5042457;28;20416;-67
2022/11/16 10:20:12;;;;;;;5.73;0.80;;;11.30;99.90;;;;;;5051928;28;20416;-67
2022/11/16 10:23:11;;;;;;;1.87;0.80;;;11.20;99.90;;;;;;5051444;28;20463;-66
2022/11/16 10:25:51;;;;;;;1.47;0.53;;;11.10;99.90;;;;;;5043481;28;20422;-67
2022/11/16 10:28:29;;;;;;;2.67;0.87;;;11.00;99.90;;;;;;5051441;28;20428;-66
2022/11/16 10:31:08;;;;;;;1.83;0.90;;;11.00;99.90;;;;;;5051915;28;20920;-65
2022/11/16 10:33:36;;;;;;;1.70;0.70;;;11.10;99.90;;;;;;5051547;28;20419;-67
2022/11/16 10:36:12;;;;;;;1.57;0.80;;;11.10;99.90;;;;;;5050590;28;20830;-67
2022/11/16 10:38:39;;;;;;;1.50;0.70;;;11.10;99.90;;;;;;5051850;28;20412;-67
2022/11/16 10:41:18;;;;;;;1.90;0.97;;;11.10;99.90;;;;;;5051721;28;20490;-66
2022/11/16 10:43:45;;;;;;;1.73;0.70;;;11.10;99.90;;;;;;5050960;28;20980;-67
2022/11/16 10:46:23;;;;;;;1.40;0.67;;;11.00;99.90;;;;;;5051843;28;20499;-67
2022/11/16 10:49:04;;;;;;;1.97;0.80;;;10.90;99.90;;;;;;5051826;28;20424;-66
2022/11/16 10:51:29;;;;;;;1.30;0.60;;;10.90;99.90;;;;;;5051538;28;20412;-67
2022/11/16 10:53:55;;;;;;;2.53;0.90;;;10.90;99.90;;;;;;5051284;28;20913;-66
2022/11/16 10:56:27;;;;;;;11.10;0.70;;;11.00;99.90;;;;;;5051511;28;20174;-66
2022/11/16 10:58:57;;;;;;;1.43;0.50;;;11.00;99.90;;;;;;5050831;28;20427;-66
2022/11/16 11:01:32;;;;;;;7.37;1.33;;;11.00;99.90;;;;;;5051453;28;20916;-67
2022/11/16 11:04:28;;;;;;;1.40;0.60;;;11.10;99.90;;;;;;5038775;28;21317;-67
2022/11/16 11:06:55;;;;;;;1.70;0.70;;;11.10;99.90;;;;;;5051300;28;20420;-67
2022/11/16 11:09:27;;;;;;;1.30;0.63;;;11.10;99.90;;;;;;5050902;28;20446;-66
2022/11/16 11:15:06;;;;;;;1.20;0.50;;;11.20;99.90;;;;;;5048477;28;20494;-66
2022/11/16 11:17:34;;;;;;;2.77;0.50;;;11.00;99.90;;;;;;5050193;28;20416;-66
2022/11/16 11:20:19;;;;;;;8.07;1.57;;;10.90;99.90;;;;;;5049955;28;20416;-66
2022/11/16 11:22:59;;;;;;;1.40;0.70;;;10.90;99.90;;;;;;5049635;28;20459;-66
2022/11/16 11:25:32;;;;;;;1.33;0.57;;;11.00;99.90;;;;;;5050492;28;20499;-66
2022/11/16 11:28:06;;;;;;;4.27;0.90;;;11.20;99.90;;;;;;5050077;28;20412;-67
2022/11/16 11:30:33;;;;;;;1.73;0.90;;;11.40;99.90;;;;;;5050320;28;20467;-67
2022/11/16 11:32:59;;;;;;;1.73;0.80;;;11.50;99.90;;;;;;5049549;28;20924;-66
2022/11/16 11:35:30;;;;;;;2.03;0.60;;;11.90;99.90;;;;;;5050726;28;20439;-66
2022/11/16 11:38:01;;;;;;;1.30;0.60;;;12.00;99.90;;;;;;5053967;28;20432;-66
2022/11/16 11:40:28;;;;;;;6.20;0.87;;;12.20;99.90;;;;;;5054178;28;20951;-66
2022/11/16 11:42:59;;;;;;;1.50;0.63;;;12.30;99.90;;;;;;5053613;28;20470;-66
2022/11/16 11:45:47;;;;;;;4.20;0.50;;;12.20;99.90;;;;;;5053725;28;20439;-66
2022/11/16 11:48:26;;;;;;;1.50;0.63;;;12.20;99.90;;;;;;5053751;28;20477;-66
2022/11/16 11:50:59;;;;;;;1.20;0.40;;;12.20;99.90;;;;;;5053950;28;20423;-66
2022/11/16 11:54:03;;;;;;;1.20;0.50;;;12.30;99.90;;;;;;5053046;28;20431;-66
2022/11/16 11:56:31;;;;;;;1.40;0.60;;;12.50;99.90;;;;;;4998762;28;20428;-66
2022/11/16 11:58:57;;;;;;;1.73;0.80;;;12.80;99.90;;;;;;5053369;28;20412;-66
2022/11/16 12:01:37;;;;;;;1.20;0.40;;;12.70;99.90;;;;;;5053772;28;20489;-66
2022/11/16 12:04:05;;;;;;;1.57;0.50;;;12.70;99.90;;;;;;5041204;28;20213;-66
2022/11/16 12:06:40;;;;;;;2.03;0.60;;;12.70;99.90;;;;;;5053550;28;20427;-66
2022/11/16 12:09:27;;;;;;;2.03;0.97;;;12.40;99.90;;;;;;5052982;28;20806;-66
2022/11/16 12:11:55;;;;;;;2.80;0.70;;;12.20;99.90;;;;;;5053446;28;20436;-66
2022/11/16 12:14:21;;;;;;;1.63;0.70;;;12.00;99.90;;;;;;5053019;28;20515;-66
2022/11/16 12:17:35;;;;;;;2.57;0.67;;;11.80;99.90;;;;;;5053478;28;20420;-66
2022/11/16 12:20:25;;;;;;;4.40;0.77;;;11.60;99.90;;;;;;5048243;28;20201;-66
2022/11/16 12:23:33;;;;;;;3.10;1.00;;;11.60;99.90;;;;;;5052751;28;20459;-66
2022/11/16 12:26:25;;;;;;;2.37;0.80;;;11.50;99.90;;;;;;5053129;28;20919;-67
2022/11/16 12:29:03;;;;;;;1.20;0.40;;;11.80;99.90;;;;;;5041886;28;20420;-67
2022/11/16 12:31:42;;;;;;;6.10;0.93;;;11.80;99.90;;;;;;5052771;28;20416;-65
2022/11/16 12:34:42;;;;;;;1.97;0.80;;;11.90;99.90;;;;;;5051516;28;20459;-65
2022/11/16 12:37:16;;;;;;;1.87;0.77;;;11.90;99.90;;;;;;5052950;28;20793;-66
2022/11/16 12:40:06;;;;;;;3.30;0.80;;;11.90;99.90;;;;;;5039209;28;20415;-66
2022/11/16 12:42:50;;;;;;;1.20;0.40;;;12.10;99.90;;;;;;5049186;28;20463;-66
2022/11/16 12:45:52;;;;;;;1.97;0.63;;;12.10;99.90;;;;;;5052357;28;20772;-66
2022/11/16 12:48:24;;;;;;;1.30;0.50;;;12.20;99.90;;;;;;5042374;28;20506;-67
2022/11/16 12:51:21;;;;;;;1.90;0.77;;;12.30;99.90;;;;;;5052187;28;20409;-66
2022/11/16 12:54:06;;;;;;;2.37;1.10;;;12.30;99.90;;;;;;5047893;28;20431;-66
2022/11/16 12:56:39;;;;;;;2.77;0.80;;;12.40;99.90;;;;;;5045348;28;20420;-66
2022/11/16 12:59:13;;;;;;;2.67;0.90;;;12.30;99.90;;;;;;5039036;28;20455;-66
2022/11/16 13:02:16;;;;;;;1.33;0.50;;;12.10;99.90;;;;;;5052264;28;20411;-66
2022/11/16 13:04:46;;;;;;;1.30;0.60;;;12.00;99.90;;;;;;5039396;28;20435;-70
2022/11/16 13:07:15;;;;;;;1.30;0.60;;;12.00;99.90;;;;;;5051810;28;20424;-68
2022/11/16 13:09:49;;;;;;;2.37;0.90;;;11.80;99.90;;;;;;5052433;28;20775;-68
2022/11/16 13:12:22;;;;;;;1.50;0.50;;;11.80;99.90;;;;;;5039265;28;20919;-68
2022/11/16 13:14:51;;;;;;;1.80;0.50;;;12.00;99.90;;;;;;5051699;28;20917;-68
2022/11/16 13:17:21;;;;;;;2.13;1.17;;;12.10;99.90;;;;;;5052329;28;20436;-66
2022/11/16 13:20:11;;;;;;;1.67;0.83;;;12.10;99.90;;;;;;5051673;28;20419;-66
2022/11/16 13:22:41;;;;;;;3.27;0.93;;;12.10;99.90;;;;;;5056968;28;20460;-66
2022/11/16 13:25:24;;;;;;;1.70;0.60;;;11.90;99.90;;;;;;5051104;28;20532;-66
2022/11/16 13:28:02;;;;;;;2.00;1.03;;;11.90;99.90;;;;;;5053070;28;20495;-66
2022/11/16 13:30:54;;;;;;;3.00;1.30;;;11.90;99.90;;;;;;5053031;28;20416;-66
2022/11/16 13:33:46;;;;;;;1.37;0.57;;;11.90;99.90;;;;;;5041038;28;20430;-66
2022/11/16 13:36:44;;;;;;;1.37;0.63;;;12.00;99.90;;;;;;5042537;28;20790;-66
2022/11/16 13:39:51;;;;;;;1.97;0.70;;;12.00;99.90;;;;;;5052428;28;21040;-67
2022/11/16 13:42:17;;;;;;;1.50;0.50;;;12.10;99.90;;;;;;5020684;28;20471;-66
2022/11/16 13:44:42;;;;;;;3.33;0.63;;;12.10;99.90;;;;;;5052500;28;20732;-66
2022/11/16 13:47:20;;;;;;;4.97;1.23;;;12.10;99.90;;;;;;5051272;28;20465;-67
2022/11/16 13:49:58;;;;;;;2.53;0.63;;;12.10;99.90;;;;;;5043988;28;20654;-67
2022/11/16 13:52:41;;;;;;;1.87;0.93;;;12.30;99.90;;;;;;5052808;28;20424;-68
2022/11/16 13:55:28;;;;;;;1.40;0.57;;;12.60;99.90;;;;;;5052804;28;20424;-67
2022/11/16 13:57:55;;;;;;;2.40;0.90;;;12.80;99.90;;;;;;5054162;28;20424;-67
2022/11/16 14:00:59;;;;;;;4.63;0.80;;;12.80;99.90;;;;;;5058398;28;21089;-68